createdAt,value
2018-04-15T00:00:08.740Z,0.00
2018-04-15T00:01:30.031Z,0.00
2018-04-15T00:02:30.603Z,0.00
2018-04-15T00:03:30.644Z,0.00
2018-04-15T00:04:30.181Z,0.00
2018-04-15T00:05:52.346Z,0.00
2018-04-15T00:06:52.853Z,0.00
2018-04-15T00:07:52.425Z,0.00
2018-04-15T00:08:52.808Z,0.00
2018-04-15T00:09:52.744Z,0.00
2018-04-15T00:10:52.487Z,0.00
2018-04-15T00:11:53.006Z,0.00
2018-04-15T00:13:14.367Z,0.00
2018-04-15T00:14:35.015Z,0.00
2018-04-15T00:15:36.067Z,0.00
2018-04-15T00:16:35.966Z,0.00
2018-04-15T00:17:35.850Z,0.00
2018-04-15T00:18:35.742Z,0.00
2018-04-15T00:19:35.214Z,0.00
2018-04-15T00:20:35.988Z,0.00
2018-04-15T00:21:35.857Z,0.00
2018-04-15T00:22:56.932Z,0.00
2018-04-15T00:23:57.877Z,0.00
2018-04-15T00:24:57.817Z,0.00
2018-04-15T00:25:57.285Z,0.00
2018-04-15T00:26:58.024Z,0.00
2018-04-15T00:27:57.717Z,0.00
2018-04-15T00:29:18.435Z,0.00
2018-04-15T00:30:18.986Z,0.00
2018-04-15T00:31:19.784Z,0.00
2018-04-15T00:32:19.310Z,0.00
2018-04-15T00:33:18.855Z,0.00
2018-04-15T00:34:19.234Z,0.00
2018-04-15T00:35:18.945Z,0.00
2018-04-15T00:36:19.457Z,0.00
2018-04-15T00:37:19.115Z,0.00
2018-04-15T00:38:18.499Z,0.00
2018-04-15T00:39:19.574Z,0.00
2018-04-15T00:40:19.401Z,0.00
2018-04-15T00:41:19.144Z,0.00
2018-04-15T00:42:18.641Z,0.00
2018-04-15T00:43:19.155Z,0.00
2018-04-15T00:44:18.630Z,0.00
2018-04-15T00:45:19.356Z,0.00
2018-04-15T00:46:18.936Z,0.00
2018-04-15T00:47:18.457Z,0.00
2018-04-15T00:48:18.979Z,0.00
2018-04-15T00:49:18.900Z,0.00
2018-04-15T00:50:19.736Z,0.00
2018-04-15T00:51:19.511Z,0.00
2018-04-15T00:52:19.018Z,0.00
2018-04-15T00:53:18.738Z,0.00
2018-04-15T00:54:19.711Z,0.00
2018-04-15T00:56:01.611Z,0.00
2018-04-15T00:57:02.179Z,0.00
2018-04-15T00:58:02.051Z,0.00
2018-04-15T00:59:02.587Z,0.00
2018-04-15T01:00:02.953Z,0.00
2018-04-15T01:02:07.494Z,0.00
2018-04-15T01:03:08.458Z,0.00
2018-04-15T01:04:07.857Z,0.00
2018-04-15T01:05:09.319Z,0.00
2018-04-15T01:06:08.143Z,0.00
2018-04-15T01:07:08.115Z,0.00
2018-04-15T01:08:07.972Z,0.00
2018-04-15T01:09:29.080Z,0.00
2018-04-15T01:10:51.072Z,0.00
2018-04-15T01:12:12.988Z,0.00
2018-04-15T01:13:13.663Z,0.00
2018-04-15T01:14:13.540Z,0.00
2018-04-15T01:15:34.858Z,0.00
2018-04-15T01:16:56.973Z,0.00
2018-04-15T01:17:57.924Z,0.00
2018-04-15T01:18:57.637Z,0.00
2018-04-15T01:19:57.018Z,0.00
2018-04-15T01:20:57.597Z,0.00
2018-04-15T01:22:18.449Z,0.00
2018-04-15T01:23:19.657Z,0.00
2018-04-15T01:24:18.405Z,0.00
2018-04-15T01:25:18.835Z,0.00
2018-04-15T01:26:18.587Z,0.00
2018-04-15T01:27:40.601Z,0.00
2018-04-15T01:28:41.148Z,0.00
2018-04-15T01:29:40.824Z,0.00
2018-04-15T01:30:40.862Z,0.00
2018-04-15T01:31:41.582Z,0.00
2018-04-15T01:45:27.978Z,0.00
2018-04-15T01:46:49.884Z,0.00
2018-04-15T01:47:50.298Z,0.00
2018-04-15T01:48:49.802Z,0.00
2018-04-15T01:49:50.875Z,0.00
2018-04-15T01:50:50.815Z,0.00
2018-04-15T01:51:50.398Z,0.00
2018-04-15T01:52:49.928Z,0.00
2018-04-15T01:53:51.017Z,0.00
2018-04-15T01:54:50.572Z,0.00
2018-04-15T01:55:50.284Z,0.00
2018-04-15T01:56:50.401Z,0.00
2018-04-15T01:57:50.304Z,0.00
2018-04-15T01:58:50.893Z,0.00
2018-04-15T01:59:51.513Z,0.00
2018-04-15T02:00:50.512Z,0.00
2018-04-15T02:01:50.232Z,0.00
2018-04-15T02:02:50.088Z,0.00
2018-04-15T02:03:50.303Z,0.00
2018-04-15T02:04:49.996Z,0.00
2018-04-15T02:05:50.997Z,0.00
2018-04-15T02:06:51.036Z,0.00
2018-04-15T02:08:11.374Z,0.00
2018-04-15T02:09:11.972Z,0.00
2018-04-15T02:10:11.733Z,0.00
2018-04-15T02:11:32.432Z,0.00
2018-04-15T02:12:33.393Z,0.00
2018-04-15T02:13:32.439Z,0.00
2018-04-15T02:14:32.066Z,0.00
2018-04-15T02:15:33.168Z,0.00
2018-04-15T02:17:14.323Z,0.00
2018-04-15T02:18:14.886Z,0.00
2018-04-15T02:19:14.916Z,0.00
2018-04-15T02:20:36.817Z,0.00
2018-04-15T02:21:36.572Z,0.00
2018-04-15T02:22:36.306Z,0.00
2018-04-15T02:23:36.325Z,0.00
2018-04-15T02:24:36.005Z,0.00
2018-04-15T02:25:36.918Z,0.00
2018-04-15T02:26:37.019Z,0.00
2018-04-15T02:27:58.200Z,0.00
2018-04-15T02:28:58.349Z,0.00
2018-04-15T02:29:58.156Z,0.00
2018-04-15T02:30:58.010Z,0.00
2018-04-15T02:31:57.616Z,0.00
2018-04-15T02:32:57.674Z,0.00
2018-04-15T02:33:57.660Z,0.00
2018-04-15T02:34:57.270Z,0.00
2018-04-15T02:35:57.984Z,0.00
2018-04-15T02:36:57.965Z,0.00
2018-04-15T02:37:57.912Z,0.00
2018-04-15T02:38:57.425Z,0.00
2018-04-15T02:39:58.025Z,0.00
2018-04-15T02:40:57.779Z,0.00
2018-04-15T02:41:57.936Z,0.00
2018-04-15T02:42:57.723Z,0.00
2018-04-15T02:43:57.557Z,0.00
2018-04-15T02:44:58.032Z,0.00
2018-04-15T02:45:57.689Z,0.00
2018-04-15T02:46:57.237Z,0.00
2018-04-15T02:48:18.246Z,0.00
2018-04-15T02:49:18.765Z,0.00
2018-04-15T02:50:18.850Z,0.00
2018-04-15T02:51:18.416Z,0.00
2018-04-15T02:52:41.931Z,0.00
2018-04-15T02:53:42.339Z,0.00
2018-04-15T02:54:42.043Z,0.00
2018-04-15T02:56:02.695Z,0.00
2018-04-15T02:57:03.634Z,0.00
2018-04-15T02:58:03.217Z,0.00
2018-04-15T02:59:02.885Z,0.00
2018-04-15T03:00:02.496Z,0.00
2018-04-15T03:01:03.463Z,0.00
2018-04-15T03:02:03.022Z,0.00
2018-04-15T03:03:03.022Z,0.00
2018-04-15T03:04:02.579Z,0.00
2018-04-15T03:05:23.468Z,0.00
2018-04-15T03:06:23.956Z,0.00
2018-04-15T03:07:24.016Z,0.00
2018-04-15T03:09:04.723Z,0.00
2018-04-15T03:10:05.401Z,0.00
2018-04-15T03:11:04.963Z,0.00
2018-04-15T03:12:05.504Z,0.00
2018-04-15T03:13:05.448Z,0.00
2018-04-15T03:14:05.129Z,0.00
2018-04-15T03:15:05.076Z,0.00
2018-04-15T03:16:04.706Z,0.00
2018-04-15T03:17:05.391Z,0.00
2018-04-15T03:18:04.859Z,0.00
2018-04-15T03:19:05.699Z,0.00
2018-04-15T03:20:05.631Z,0.00
2018-04-15T03:21:05.539Z,0.00
2018-04-15T03:22:05.172Z,0.00
2018-04-15T03:23:04.635Z,0.00
2018-04-15T03:24:05.330Z,0.00
2018-04-15T03:25:04.999Z,0.00
2018-04-15T03:26:04.733Z,0.00
2018-04-15T03:27:05.372Z,0.00
2018-04-15T03:28:04.966Z,0.00
2018-04-15T03:29:25.104Z,0.00
2018-04-15T03:30:25.865Z,0.00
2018-04-15T03:31:25.842Z,0.00
2018-04-15T03:32:46.627Z,0.00
2018-04-15T03:33:47.702Z,0.00
2018-04-15T03:34:46.287Z,0.00
2018-04-15T03:35:46.981Z,0.00
2018-04-15T03:36:47.683Z,0.00
2018-04-15T03:37:46.756Z,0.00
2018-04-15T03:38:46.859Z,0.00
2018-04-15T03:39:46.551Z,0.00
2018-04-15T03:40:47.177Z,0.00
2018-04-15T03:42:07.094Z,0.00
2018-04-15T03:43:07.685Z,0.00
2018-04-15T03:44:07.558Z,0.00
2018-04-15T03:45:07.325Z,0.00
2018-04-15T03:46:08.321Z,0.00
2018-04-15T03:47:07.917Z,0.00
2018-04-15T03:48:07.849Z,0.00
2018-04-15T03:49:07.365Z,0.00
2018-04-15T03:50:07.618Z,0.00
2018-04-15T03:51:07.326Z,0.00
2018-04-15T03:52:07.989Z,0.00
2018-04-15T03:53:07.595Z,0.00
2018-04-15T03:54:07.692Z,0.00
2018-04-15T03:55:07.736Z,0.00
2018-04-15T03:56:07.593Z,0.00
2018-04-15T03:57:07.273Z,0.00
2018-04-15T03:58:28.722Z,1.00
2018-04-15T03:59:28.340Z,1.00
2018-04-15T04:00:49.474Z,1.00
2018-04-15T04:01:50.317Z,1.00
2018-04-15T04:02:49.794Z,1.00
2018-04-15T04:03:50.529Z,1.00
2018-04-15T04:04:49.934Z,2.00
2018-04-15T04:05:49.702Z,2.00
2018-04-15T04:07:10.893Z,2.00
2018-04-15T04:08:10.574Z,3.00
2018-04-15T04:09:11.659Z,3.00
2018-04-15T04:10:11.478Z,4.00
2018-04-15T04:11:11.120Z,5.00
2018-04-15T04:12:11.237Z,5.00
2018-04-15T04:13:11.105Z,6.00
2018-04-15T04:14:11.161Z,7.00
2018-04-15T04:15:10.884Z,8.00
2018-04-15T04:16:11.291Z,9.00
2018-04-15T04:17:10.932Z,11.00
2018-04-15T04:18:10.500Z,12.00
2018-04-15T04:19:11.476Z,14.00
2018-04-15T04:20:11.548Z,16.00
2018-04-15T04:21:11.185Z,19.00
2018-04-15T04:22:32.017Z,23.00
2018-04-15T04:23:32.145Z,26.00
2018-04-15T04:24:33.313Z,30.00
2018-04-15T04:25:32.002Z,34.00
2018-04-15T04:26:32.079Z,38.00
2018-04-15T04:27:52.129Z,44.00
2018-04-15T04:29:13.930Z,50.00
2018-04-15T04:30:34.658Z,59.00
2018-04-15T04:31:56.334Z,66.00
2018-04-15T04:32:56.898Z,72.00
2018-04-15T04:33:56.832Z,76.00
2018-04-15T04:34:56.651Z,78.00
2018-04-15T04:35:57.626Z,81.00
2018-04-15T04:36:56.719Z,84.00
2018-04-15T04:37:56.500Z,94.00
2018-04-15T04:38:56.718Z,108.00
2018-04-15T04:39:56.812Z,117.00
2018-04-15T04:40:56.531Z,125.00
2018-04-15T04:42:37.297Z,143.00
2018-04-15T04:43:58.639Z,160.00
2018-04-15T04:44:59.134Z,167.00
2018-04-15T04:45:59.122Z,173.00
2018-04-15T04:46:58.917Z,185.00
2018-04-15T04:48:40.900Z,209.00
2018-04-15T04:49:40.704Z,225.00
2018-04-15T04:50:41.297Z,239.00
2018-04-15T04:51:41.379Z,255.00
2018-04-15T04:52:41.044Z,275.00
2018-04-15T04:53:41.046Z,297.00
2018-04-15T04:55:01.488Z,328.00
2018-04-15T04:56:02.444Z,348.00
2018-04-15T04:57:02.514Z,361.00
2018-04-15T04:58:02.725Z,368.00
2018-04-15T04:59:02.310Z,368.00
2018-04-15T05:00:02.019Z,358.00
2018-04-15T05:01:02.792Z,358.00
2018-04-15T05:02:26.520Z,370.00
2018-04-15T05:03:23.918Z,373.00
2018-04-15T05:04:22.519Z,370.00
2018-04-15T05:05:23.134Z,369.00
2018-04-15T05:06:22.704Z,380.00
2018-04-15T05:07:23.713Z,417.00
2018-04-15T05:08:42.914Z,487.00
2018-04-15T05:09:44.169Z,537.00
2018-04-15T05:10:43.257Z,548.00
2018-04-15T05:11:44.968Z,521.00
2018-04-15T05:12:42.930Z,488.00
2018-04-15T05:14:06.760Z,499.00
2018-04-15T05:15:28.545Z,567.00
2018-04-15T05:16:49.889Z,672.00
2018-04-15T05:17:49.668Z,738.00
2018-04-15T05:18:49.839Z,763.00
2018-04-15T05:19:49.530Z,777.00
2018-04-15T05:20:50.651Z,745.00
2018-04-15T05:22:09.887Z,700.00
2018-04-15T05:23:11.047Z,713.00
2018-04-15T05:24:10.679Z,752.00
2018-04-15T05:25:10.580Z,791.00
2018-04-15T05:26:10.160Z,815.00
2018-04-15T05:27:11.215Z,807.00
2018-04-15T05:28:30.889Z,786.00
2018-04-15T05:29:31.639Z,807.00
2018-04-15T05:30:32.003Z,884.00
2018-04-15T05:31:32.931Z,927.00
2018-04-15T05:32:31.853Z,960.00
2018-04-15T05:33:52.459Z,928.00
2018-04-15T05:34:53.099Z,777.00
2018-04-15T05:35:53.135Z,688.00
2018-04-15T05:36:53.367Z,716.00
2018-04-15T05:37:53.212Z,890.00
2018-04-15T05:38:53.284Z,1155.00
2018-04-15T05:39:53.815Z,1364.00
2018-04-15T05:40:53.655Z,1444.00
2018-04-15T05:41:53.400Z,1446.00
2018-04-15T05:42:53.068Z,1430.00
2018-04-15T05:43:53.256Z,1407.00
2018-04-15T05:44:53.020Z,1330.00
2018-04-15T05:46:35.009Z,1208.00
2018-04-15T05:47:56.794Z,1249.00
2018-04-15T05:48:56.608Z,1353.00
2018-04-15T05:49:57.245Z,1464.00
2018-04-15T05:51:18.010Z,1531.00
2018-04-15T05:52:19.530Z,1443.00
2018-04-15T05:53:18.377Z,1413.00
2018-04-15T05:54:18.345Z,1510.00
2018-04-15T05:55:18.515Z,1614.00
2018-04-15T05:56:38.914Z,1605.00
2018-04-15T05:57:39.991Z,1603.00
2018-04-15T05:59:00.285Z,1732.00
2018-04-15T06:00:01.071Z,1782.00
2018-04-15T06:01:00.634Z,1776.00
2018-04-15T06:02:00.770Z,1739.00
2018-04-15T06:03:00.560Z,1738.00
2018-04-15T06:04:00.876Z,1756.00
2018-04-15T06:05:42.770Z,1839.00
2018-04-15T06:06:43.698Z,1847.00
2018-04-15T06:07:42.924Z,1863.00
2018-04-15T06:08:43.064Z,1840.00
2018-04-15T06:10:03.523Z,1839.00
2018-04-15T06:11:03.632Z,1839.00
2018-04-15T06:12:03.486Z,1825.00
2018-04-15T06:13:03.551Z,1767.00
2018-04-15T06:14:03.676Z,1693.00
2018-04-15T06:15:03.962Z,1629.00
2018-04-15T06:16:03.870Z,1689.00
2018-04-15T06:17:25.672Z,1868.00
2018-04-15T06:18:25.946Z,1971.00
2018-04-15T06:19:46.904Z,2096.00
2018-04-15T06:20:46.654Z,2188.00
2018-04-15T06:21:46.496Z,2296.00
2018-04-15T06:23:07.820Z,2423.00
2018-04-15T06:24:08.804Z,2494.00
2018-04-15T06:25:29.692Z,2555.00
2018-04-15T06:26:30.772Z,2569.00
2018-04-15T06:28:12.624Z,2454.00
2018-04-15T06:29:12.746Z,2291.00
2018-04-15T06:30:12.784Z,2352.00
2018-04-15T06:31:13.020Z,2545.00
2018-04-15T06:32:13.265Z,2650.00
2018-04-15T06:33:13.117Z,2688.00
2018-04-15T06:34:13.375Z,2729.00
2018-04-15T06:35:13.592Z,2771.00
2018-04-15T06:36:12.853Z,2783.00
2018-04-15T06:37:13.438Z,2795.00
2018-04-15T06:38:55.592Z,2857.00
2018-04-15T06:39:56.928Z,2846.00
2018-04-15T06:40:56.037Z,2836.00
2018-04-15T06:41:56.192Z,2922.00
2018-04-15T06:42:56.348Z,3047.00
2018-04-15T06:43:56.379Z,3100.00
2018-04-15T06:44:56.254Z,3075.00
2018-04-15T06:45:56.129Z,3097.00
2018-04-15T06:46:56.003Z,3155.00
2018-04-15T06:48:17.644Z,3234.00
2018-04-15T06:49:18.466Z,3293.00
2018-04-15T06:51:05.744Z,3406.00
2018-04-15T06:52:06.011Z,3418.00
2018-04-15T06:53:06.176Z,3413.00
2018-04-15T06:54:06.114Z,3425.00
2018-04-15T06:55:06.507Z,3504.00
2018-04-15T06:56:26.801Z,3619.00
2018-04-15T06:57:26.487Z,3736.00
2018-04-15T06:58:27.350Z,3863.00
2018-04-15T06:59:27.691Z,3913.00
2018-04-15T07:00:32.000Z,3945.00
2018-04-15T07:01:28.644Z,3976.00
2018-04-15T07:02:26.783Z,4078.00
2018-04-15T07:03:26.936Z,4313.00
2018-04-15T07:04:28.000Z,4567.00
2018-04-15T07:05:27.005Z,4845.00
2018-04-15T07:06:48.763Z,5117.00
2018-04-15T07:07:49.322Z,5348.00
2018-04-15T07:08:48.605Z,5579.00
2018-04-15T07:09:48.945Z,5704.00
2018-04-15T07:10:50.206Z,6039.00
2018-04-15T07:11:48.384Z,6213.00
2018-04-15T07:13:31.249Z,6816.00
2018-04-15T07:14:32.031Z,7008.00
2018-04-15T07:15:31.316Z,7129.00
2018-04-15T07:16:35.460Z,7398.00
2018-04-15T07:17:31.267Z,7561.00
2018-04-15T07:18:52.426Z,7895.00
2018-04-15T07:19:54.261Z,8229.00
2018-04-15T07:21:14.033Z,8337.00
2018-04-15T07:22:14.228Z,8261.00
2018-04-15T07:23:13.987Z,8318.00
2018-04-15T07:24:15.100Z,8379.00
2018-04-15T07:25:34.481Z,8522.00
2018-04-15T07:26:35.277Z,8574.00
2018-04-15T07:27:36.325Z,8370.00
2018-04-15T07:28:35.915Z,8004.00
2018-04-15T07:29:35.058Z,7913.00
2018-04-15T07:30:35.223Z,8023.00
2018-04-15T07:31:35.314Z,8213.00
2018-04-15T07:32:35.766Z,8317.00
2018-04-15T07:33:35.806Z,8311.00
2018-04-15T07:34:35.177Z,8365.00
2018-04-15T07:35:56.957Z,8659.00
2018-04-15T07:36:57.097Z,8819.00
2018-04-15T07:37:58.443Z,8812.00
2018-04-15T07:38:57.950Z,8663.00
2018-04-15T07:39:58.535Z,8809.00
2018-04-15T07:40:58.177Z,8870.00
2018-04-15T07:41:58.069Z,8656.00
2018-04-15T07:42:58.390Z,8229.00
2018-04-15T07:43:57.132Z,7376.00
2018-04-15T07:44:57.738Z,8808.00
2018-04-15T07:45:56.693Z,10017.00
2018-04-15T07:46:57.238Z,10383.00
2018-04-15T07:47:57.620Z,10458.00
2018-04-15T07:48:57.188Z,10495.00
2018-04-15T07:49:57.072Z,10607.00
2018-04-15T07:50:57.266Z,10435.00
2018-04-15T07:51:57.635Z,9988.00
2018-04-15T07:52:57.230Z,9429.00
2018-04-15T07:53:57.579Z,7847.00
2018-04-15T07:54:57.628Z,8015.00
2018-04-15T07:55:56.866Z,9474.00
2018-04-15T07:56:57.833Z,10953.00
2018-04-15T07:57:57.165Z,12214.00
2018-04-15T07:58:57.397Z,12875.00
2018-04-15T07:59:58.844Z,13243.00
2018-04-15T08:00:57.012Z,13738.00
2018-04-15T08:01:57.198Z,13677.00
2018-04-15T08:02:57.706Z,13535.00
2018-04-15T08:03:57.246Z,13421.00
2018-04-15T08:04:59.426Z,13441.00
2018-04-15T08:05:58.026Z,13444.00
2018-04-15T08:06:57.267Z,13495.00
2018-04-15T08:07:57.681Z,13377.00
2018-04-15T08:08:56.981Z,13386.00
2018-04-15T08:09:57.336Z,13705.00
2018-04-15T08:10:57.335Z,13831.00
2018-04-15T08:11:58.216Z,13852.00
2018-04-15T08:12:57.507Z,13964.00
2018-04-15T08:13:56.805Z,14443.00
2018-04-15T08:14:57.020Z,15150.00
2018-04-15T08:15:58.127Z,16211.00
2018-04-15T08:16:57.848Z,17480.00
2018-04-15T08:18:18.325Z,19408.00
2018-04-15T08:19:18.919Z,20792.00
2018-04-15T08:20:18.919Z,22216.00
2018-04-15T08:21:18.531Z,23696.00
2018-04-15T08:22:18.973Z,25432.00
2018-04-15T08:23:18.308Z,26880.00
2018-04-15T08:24:19.292Z,28144.00
2018-04-15T08:25:40.041Z,28424.00
2018-04-15T08:26:40.077Z,30408.00
2018-04-15T08:27:40.599Z,31720.00
2018-04-15T08:29:02.716Z,32016.00
2018-04-15T08:30:03.487Z,32800.00
2018-04-15T08:31:05.142Z,36984.00
2018-04-15T08:32:26.651Z,43560.00
2018-04-15T08:33:25.797Z,46672.00
2018-04-15T08:34:26.982Z,46808.00
2018-04-15T08:35:26.683Z,46952.00
2018-04-15T08:36:27.053Z,57496.00
2018-04-15T08:37:26.302Z,54840.00
2018-04-15T08:38:26.382Z,49248.00
2018-04-15T08:39:26.928Z,63520.00
2018-04-15T08:40:26.106Z,55368.00
2018-04-15T08:41:26.186Z,56368.00
2018-04-15T08:42:26.802Z,43344.00
2018-04-15T08:43:26.063Z,39064.00
2018-04-15T08:44:27.060Z,32264.00
2018-04-15T08:45:27.883Z,31648.00
2018-04-15T08:46:26.579Z,26752.00
2018-04-15T08:47:25.818Z,26160.00
2018-04-15T08:48:26.774Z,23912.00
2018-04-15T08:49:26.819Z,20936.00
2018-04-15T08:50:27.529Z,21912.00
2018-04-15T08:51:49.214Z,19168.00
2018-04-15T08:52:50.906Z,18704.00
2018-04-15T08:53:50.726Z,17888.00
2018-04-15T08:54:49.051Z,18616.00
2018-04-15T08:55:48.509Z,17792.00
2018-04-15T08:56:48.943Z,16731.00
2018-04-15T08:57:51.415Z,20184.00
2018-04-15T08:59:09.758Z,19472.00
2018-04-15T09:00:10.011Z,20576.00
2018-04-15T09:01:53.224Z,24120.00
2018-04-15T09:02:54.010Z,34160.00
2018-04-15T09:03:53.755Z,36136.00
2018-04-15T09:05:14.530Z,32272.00
2018-04-15T09:06:38.618Z,35008.00
2018-04-15T09:07:38.419Z,32792.00
2018-04-15T09:08:59.417Z,28424.00
2018-04-15T09:09:59.907Z,23608.00
2018-04-15T09:11:00.745Z,20968.00
2018-04-15T09:12:21.406Z,29072.00
2018-04-15T09:13:21.239Z,36472.00
2018-04-15T09:14:20.571Z,60400.00
2018-04-15T09:15:21.002Z,63760.00
2018-04-15T09:16:20.185Z,39296.00
2018-04-15T09:17:21.054Z,33176.00
2018-04-15T09:18:20.607Z,38944.00
2018-04-15T09:19:21.024Z,30560.00
2018-04-15T09:20:20.780Z,27280.00
2018-04-15T09:21:21.496Z,23552.00
2018-04-15T09:22:21.163Z,23016.00
2018-04-15T09:24:24.417Z,25936.00
2018-04-15T09:25:24.864Z,23384.00
2018-04-15T09:26:25.617Z,22568.00
2018-04-15T09:27:23.927Z,23400.00
2018-04-15T09:28:24.445Z,17488.00
2018-04-15T09:29:26.139Z,13106.00
2018-04-15T09:30:24.756Z,12928.00
2018-04-15T09:31:24.454Z,15621.00
2018-04-15T09:32:48.407Z,28656.00
2018-04-15T09:33:48.638Z,33416.00
2018-04-15T09:34:48.294Z,38248.00
2018-04-15T09:36:11.918Z,56296.00
2018-04-15T09:37:09.727Z,30448.00
2018-04-15T09:38:09.562Z,28936.00
2018-04-15T09:39:10.157Z,25120.00
2018-04-15T09:40:10.659Z,22504.00
2018-04-15T09:41:31.313Z,25552.00
2018-04-15T09:42:31.386Z,31752.00
2018-04-15T09:43:33.392Z,32968.00
2018-04-15T09:44:55.975Z,27464.00
2018-04-15T09:45:58.576Z,25424.00
2018-04-15T09:47:39.174Z,27392.00
2018-04-15T09:48:40.511Z,27640.00
2018-04-15T09:49:39.966Z,27560.00
2018-04-15T09:50:40.037Z,26024.00
2018-04-15T09:51:40.843Z,24336.00
2018-04-15T09:52:40.358Z,23784.00
2018-04-15T09:53:39.727Z,24928.00
2018-04-15T09:55:03.204Z,27976.00
2018-04-15T09:56:24.095Z,33488.00
2018-04-15T09:57:50.716Z,34352.00
2018-04-15T09:58:49.044Z,33344.00
2018-04-15T09:59:49.501Z,26592.00
2018-04-15T10:00:51.640Z,22336.00
2018-04-15T10:01:48.752Z,21728.00
2018-04-15T10:02:50.648Z,22160.00
2018-04-15T10:03:49.727Z,22976.00
2018-04-15T10:05:14.203Z,26784.00
2018-04-15T10:06:13.953Z,30752.00
2018-04-15T10:07:12.470Z,35512.00
2018-04-15T10:08:57.643Z,31144.00
2018-04-15T10:09:57.678Z,32640.00
2018-04-15T10:10:57.534Z,35608.00
2018-04-15T10:11:57.016Z,33272.00
2018-04-15T10:13:21.652Z,49768.00
2018-04-15T10:14:20.911Z,38184.00
2018-04-15T10:15:22.681Z,38000.00
2018-04-15T10:16:23.107Z,42400.00
2018-04-15T10:17:45.224Z,65535.00
2018-04-15T10:18:46.654Z,65535.00
2018-04-15T10:19:45.340Z,65535.00
2018-04-15T10:21:08.801Z,65535.00
2018-04-15T10:22:32.263Z,44360.00
2018-04-15T10:23:32.533Z,42816.00
2018-04-15T10:24:32.684Z,47656.00
2018-04-15T10:25:32.070Z,51968.00
2018-04-15T10:26:57.416Z,38960.00
2018-04-15T10:27:56.697Z,37344.00
2018-04-15T10:28:58.329Z,38768.00
2018-04-15T10:29:56.557Z,39768.00
2018-04-15T10:30:56.906Z,40192.00
2018-04-15T10:32:23.290Z,55368.00
2018-04-15T10:33:24.171Z,65535.00
2018-04-15T10:34:23.469Z,65535.00
2018-04-15T10:35:22.490Z,65535.00
2018-04-15T10:36:24.122Z,65535.00
2018-04-15T10:37:47.719Z,65535.00
2018-04-15T10:39:13.624Z,30880.00
2018-04-15T10:41:30.676Z,40184.00
2018-04-15T10:42:30.195Z,59008.00
2018-04-15T10:43:30.878Z,65535.00
2018-04-15T10:44:53.265Z,65535.00
2018-04-15T10:45:53.739Z,65535.00
2018-04-15T10:46:56.188Z,32320.00
2018-04-15T10:48:24.713Z,24528.00
2018-04-15T10:49:24.252Z,22680.00
2018-04-15T10:50:24.109Z,23296.00
2018-04-15T10:51:25.635Z,23544.00
2018-04-15T10:52:25.341Z,22760.00
2018-04-15T10:53:25.302Z,22440.00
2018-04-15T10:54:22.982Z,24128.00
2018-04-15T10:55:24.623Z,27880.00
2018-04-15T10:56:51.073Z,63408.00
2018-04-15T10:57:50.882Z,25064.00
2018-04-15T10:58:52.544Z,22200.00
2018-04-15T10:59:54.336Z,20632.00
2018-04-15T11:00:54.234Z,19208.00
2018-04-15T11:01:54.318Z,17080.00
2018-04-15T11:02:52.416Z,16760.00
2018-04-15T11:03:53.396Z,17640.00
2018-04-15T11:04:52.593Z,19704.00
2018-04-15T11:05:50.826Z,23328.00
2018-04-15T11:06:52.468Z,41096.00
2018-04-15T11:07:53.602Z,65535.00
2018-04-15T11:08:53.271Z,65535.00
2018-04-15T11:09:51.937Z,65535.00
2018-04-15T11:10:50.953Z,65535.00
2018-04-15T11:11:52.100Z,65535.00
2018-04-15T11:12:50.971Z,65535.00
2018-04-15T11:14:18.758Z,42032.00
2018-04-15T11:15:17.240Z,26552.00
2018-04-15T11:16:19.069Z,21584.00
2018-04-15T11:18:06.265Z,36136.00
2018-04-15T11:19:07.259Z,65535.00
2018-04-15T11:20:30.312Z,37624.00
2018-04-15T11:21:31.313Z,40616.00
2018-04-15T11:22:29.991Z,65535.00
2018-04-15T11:23:30.738Z,65535.00
2018-04-15T11:24:57.194Z,65535.00
2018-04-15T11:25:58.347Z,36176.00
2018-04-15T11:27:24.164Z,65535.00
2018-04-15T11:28:24.285Z,65535.00
2018-04-15T11:29:30.264Z,60920.00
2018-04-15T11:31:38.776Z,36840.00
2018-04-15T11:32:41.282Z,65535.00
2018-04-15T11:33:39.887Z,65535.00
2018-04-15T11:34:37.767Z,65535.00
2018-04-15T11:35:43.098Z,65535.00
2018-04-15T11:37:04.406Z,26064.00
2018-04-15T11:38:07.901Z,25448.00
2018-04-15T11:39:03.740Z,45232.00
2018-04-15T11:40:06.641Z,65535.00
2018-04-15T11:41:07.420Z,65535.00
2018-04-15T11:42:05.739Z,65535.00
2018-04-15T11:43:04.581Z,65535.00
2018-04-15T11:44:31.771Z,65535.00
2018-04-15T11:45:32.562Z,65535.00
2018-04-15T11:46:31.648Z,65535.00
2018-04-15T11:47:32.185Z,65535.00
2018-04-15T11:48:32.029Z,58688.00
2018-04-15T11:50:01.747Z,31328.00
2018-04-15T11:51:04.665Z,33248.00
2018-04-15T11:51:59.327Z,33736.00
2018-04-15T11:53:25.143Z,31264.00
2018-04-15T11:54:22.646Z,65535.00
2018-04-15T11:55:25.271Z,65535.00
2018-04-15T11:56:48.591Z,65535.00
2018-04-15T11:57:50.752Z,65535.00
2018-04-15T11:58:48.802Z,65535.00
2018-04-15T11:59:49.214Z,57512.00
2018-04-15T12:00:57.822Z,65535.00
2018-04-15T12:03:16.988Z,65535.00
2018-04-15T12:04:13.341Z,65535.00
2018-04-15T12:05:14.704Z,65535.00
2018-04-15T12:06:09.456Z,65535.00
2018-04-15T12:07:07.331Z,65535.00
2018-04-15T12:08:41.180Z,21568.00
2018-04-15T12:09:35.282Z,46264.00
2018-04-15T12:11:08.351Z,19264.00
2018-04-15T12:12:10.249Z,18896.00
2018-04-15T12:13:58.706Z,65535.00
2018-04-15T12:15:35.917Z,65535.00
2018-04-15T12:16:32.314Z,36192.00
2018-04-15T12:17:31.858Z,65535.00
2018-04-15T12:19:08.979Z,23552.00
2018-04-15T12:20:01.095Z,65535.00
2018-04-15T12:21:11.066Z,65535.00
2018-04-15T12:22:03.979Z,61384.00
2018-04-15T12:23:08.248Z,65535.00
2018-04-15T12:24:45.414Z,23712.00
2018-04-15T12:25:33.482Z,21864.00
2018-04-15T12:26:34.080Z,20456.00
2018-04-15T12:27:33.945Z,20888.00
2018-04-15T12:28:33.148Z,20632.00
2018-04-15T12:29:34.488Z,19800.00
2018-04-15T12:30:37.380Z,20056.00
2018-04-15T12:31:35.972Z,24496.00
2018-04-15T12:32:31.905Z,65535.00
2018-04-15T12:33:33.237Z,65535.00
2018-04-15T12:34:33.474Z,51424.00
2018-04-15T12:35:34.015Z,34176.00
2018-04-15T12:36:34.659Z,40160.00
2018-04-15T12:37:32.509Z,64936.00
2018-04-15T12:38:59.508Z,65535.00
2018-04-15T12:40:01.796Z,65535.00
2018-04-15T12:41:00.478Z,61584.00
2018-04-15T12:42:02.885Z,65535.00
2018-04-15T12:42:59.543Z,65535.00
2018-04-15T12:44:24.282Z,24976.00
2018-04-15T12:45:42.501Z,65535.00
2018-04-15T12:46:43.513Z,28832.00
2018-04-15T12:47:46.450Z,33392.00
2018-04-15T12:48:43.711Z,56056.00
2018-04-15T12:49:42.765Z,65535.00
2018-04-15T12:50:44.198Z,28960.00
2018-04-15T12:51:43.878Z,26320.00
2018-04-15T12:52:44.112Z,22816.00
2018-04-15T12:53:44.700Z,21016.00
2018-04-15T12:54:44.085Z,21936.00
2018-04-15T12:56:09.939Z,24424.00
2018-04-15T12:57:31.776Z,26856.00
2018-04-15T12:58:59.899Z,33632.00
2018-04-15T13:00:22.890Z,65535.00
2018-04-15T13:01:22.553Z,30064.00
2018-04-15T13:02:23.107Z,26920.00
2018-04-15T13:03:50.274Z,27920.00
2018-04-15T13:04:53.999Z,65535.00
2018-04-15T13:05:48.582Z,65535.00
2018-04-15T13:06:51.247Z,23720.00
2018-04-15T13:07:50.786Z,25000.00
2018-04-15T13:08:51.166Z,23496.00
2018-04-15T13:10:36.065Z,51072.00
2018-04-15T13:11:36.054Z,65535.00
2018-04-15T13:13:01.160Z,65535.00
2018-04-15T13:14:00.434Z,25880.00
2018-04-15T13:15:03.179Z,65535.00
2018-04-15T13:16:01.285Z,65535.00
2018-04-15T13:17:02.092Z,65535.00
2018-04-15T13:18:02.629Z,65535.00
2018-04-15T13:19:02.477Z,65535.00
2018-04-15T13:20:02.182Z,65535.00
2018-04-15T13:21:01.789Z,65535.00
2018-04-15T13:22:00.453Z,65535.00
2018-04-15T13:23:25.821Z,65535.00
2018-04-15T13:24:25.605Z,65535.00
2018-04-15T13:25:26.496Z,65535.00
2018-04-15T13:26:26.429Z,65535.00
2018-04-15T13:27:24.309Z,15587.00
2018-04-15T13:28:25.382Z,23664.00
2018-04-15T13:29:51.944Z,27848.00
2018-04-15T13:30:52.165Z,63528.00
2018-04-15T13:31:51.998Z,65535.00
2018-04-15T13:32:53.730Z,65535.00
2018-04-15T13:33:54.311Z,53024.00
2018-04-15T13:34:52.535Z,38888.00